Time;durP1;ratioP1;P1;durP2;ratioP2;P2;SDS_P1;SDS_P2;PMS_P1;PMS_P2;Temp;Humidity;BMP_temperature;BMP_pressure;BME280_temperature;BME280_humidity;BME280_pressure;Samples;Min_cycle;Max_cycle;Signal;HPM_P1;HPM_P2
2021/11/06 00:00:19;;;;;;;18.80;14.70;;;6.20;99.90;;;;;;5083086;28;20567;-49
2021/11/06 00:02:46;;;;;;;17.35;12.43;;;6.40;99.90;;;;;;5079061;28;20283;-49
2021/11/06 00:05:12;;;;;;;16.15;13.55;;;6.50;99.90;;;;;;5087745;28;20203;-49
2021/11/06 00:07:38;;;;;;;17.73;13.80;;;6.30;99.90;;;;;;5083552;28;20191;-49
2021/11/06 00:10:06;;;;;;;15.47;12.40;;;6.40;99.90;;;;;;5083420;28;20206;-50
2021/11/06 00:12:32;;;;;;;17.42;13.50;;;6.20;99.90;;;;;;5088125;28;20430;-49
2021/11/06 00:14:57;;;;;;;17.00;12.73;;;6.10;99.90;;;;;;5085867;28;20205;-49
2021/11/06 00:17:23;;;;;;;17.53;13.47;;;6.30;99.90;;;;;;5077825;28;20681;-49
2021/11/06 00:19:49;;;;;;;18.70;13.70;;;6.20;99.90;;;;;;5090473;28;20218;-49
2021/11/06 00:22:15;;;;;;;22.50;12.83;;;5.90;99.90;;;;;;5091661;28;20189;-50
2021/11/06 00:24:40;;;;;;;15.57;13.60;;;6.60;99.90;;;;;;5084683;28;20198;-49
2021/11/06 00:27:06;;;;;;;18.50;14.10;;;5.90;99.90;;;;;;5085742;28;20243;-50
2021/11/06 00:29:33;;;;;;;14.73;12.43;;;6.10;99.90;;;;;;5081420;28;20208;-49
2021/11/06 00:31:58;;;;;;;17.98;13.35;;;6.00;99.90;;;;;;5087398;28;20204;-49
2021/11/06 00:34:24;;;;;;;18.47;13.07;;;5.90;99.90;;;;;;5089020;28;20193;-49
2021/11/06 00:36:50;;;;;;;15.83;12.30;;;6.20;99.90;;;;;;5084294;28;20214;-49
2021/11/06 00:39:16;;;;;;;17.47;12.93;;;5.90;99.90;;;;;;5085023;28;20609;-48
2021/11/06 00:41:41;;;;;;;18.00;13.83;;;5.30;99.90;;;;;;5086459;28;20684;-49
2021/11/06 00:44:07;;;;;;;17.40;12.50;;;5.90;99.90;;;;;;5091897;28;20213;-49
2021/11/06 00:46:33;;;;;;;16.10;13.20;;;5.80;99.90;;;;;;5081644;28;20188;-48
2021/11/06 00:48:59;;;;;;;17.83;14.03;;;5.80;99.90;;;;;;5086046;28;20593;-49
2021/11/06 00:51:25;;;;;;;16.83;13.98;;;5.80;99.90;;;;;;5089774;28;20184;-49
2021/11/06 00:53:51;;;;;;;19.70;13.38;;;5.70;99.90;;;;;;5085036;28;20557;-48
2021/11/06 00:56:17;;;;;;;18.58;12.93;;;5.60;99.90;;;;;;5091722;28;20279;-49
2021/11/06 00:58:43;;;;;;;15.55;12.40;;;5.10;99.90;;;;;;5083708;28;20190;-49
2021/11/06 01:01:08;;;;;;;17.43;13.10;;;5.60;99.90;;;;;;5088298;28;20678;-49
2021/11/06 01:03:34;;;;;;;18.77;12.90;;;5.60;99.90;;;;;;5086518;28;20183;-48
2021/11/06 01:06:00;;;;;;;17.15;13.65;;;5.80;99.90;;;;;;5087241;28;20712;-49
2021/11/06 01:08:26;;;;;;;20.40;14.73;;;5.00;99.90;;;;;;5089519;28;20204;-49
2021/11/06 01:10:52;;;;;;;16.53;12.60;;;5.50;99.90;;;;;;5087565;28;20233;-49
2021/11/06 01:13:19;;;;;;;16.58;12.73;;;5.40;99.90;;;;;;5089560;28;20180;-48
2021/11/06 01:15:44;;;;;;;18.10;12.90;;;4.80;99.90;;;;;;5081071;28;20192;-49
2021/11/06 01:18:10;;;;;;;17.97;13.67;;;5.40;99.90;;;;;;5087386;28;20287;-49
2021/11/06 01:20:36;;;;;;;17.43;13.40;;;5.40;99.90;;;;;;5088247;28;20541;-49
2021/11/06 01:23:02;;;;;;;17.60;14.10;;;5.40;99.90;;;;;;5083322;28;20855;-48
2021/11/06 01:25:28;;;;;;;16.77;12.38;;;5.30;99.90;;;;;;5082779;28;20203;-49
2021/11/06 01:27:54;;;;;;;17.70;13.00;;;5.20;99.90;;;;;;5091151;28;20188;-49
2021/11/06 01:30:21;;;;;;;15.48;12.77;;;5.40;99.90;;;;;;5082273;28;21017;-49
2021/11/06 01:32:49;;;;;;;18.83;12.73;;;5.20;99.90;;;;;;5079830;28;20184;-49
2021/11/06 01:35:16;;;;;;;16.95;12.57;;;5.20;99.90;;;;;;5081753;28;20584;-49
2021/11/06 01:37:43;;;;;;;15.10;12.63;;;4.60;99.90;;;;;;5088378;28;20184;-49
2021/11/06 01:40:10;;;;;;;17.45;11.50;;;5.00;99.90;;;;;;5085837;28;20591;-49
2021/11/06 01:42:38;;;;;;;16.52;11.95;;;5.30;99.90;;;;;;5087981;28;20242;-49
2021/11/06 01:45:05;;;;;;;13.52;11.98;;;5.20;99.90;;;;;;5079350;28;20232;-49
2021/11/06 01:47:31;;;;;;;17.58;12.80;;;5.30;99.90;;;;;;5089106;28;20214;-49
2021/11/06 01:49:56;;;;;;;15.37;11.37;;;5.30;99.90;;;;;;5073557;28;20627;-49
2021/11/06 01:52:22;;;;;;;15.73;12.93;;;5.10;99.90;;;;;;5082658;28;20437;-48
2021/11/06 01:54:48;;;;;;;14.70;11.30;;;4.60;99.90;;;;;;5085258;28;20254;-49
2021/11/06 01:57:14;;;;;;;16.70;12.73;;;5.10;99.90;;;;;;5080009;28;20263;-49
2021/11/06 01:59:40;;;;;;;15.15;11.60;;;4.80;99.90;;;;;;5087312;28;20208;-49
2021/11/06 02:02:06;;;;;;;14.97;10.83;;;4.90;99.90;;;;;;5085814;28;20185;-48
2021/11/06 02:04:32;;;;;;;16.03;11.80;;;4.90;99.90;;;;;;5080867;28;20237;-49
2021/11/06 02:06:57;;;;;;;14.10;11.57;;;4.80;99.90;;;;;;5083650;28;20196;-49
2021/11/06 02:09:23;;;;;;;15.17;12.07;;;4.70;99.90;;;;;;5083655;28;20571;-48
2021/11/06 02:11:49;;;;;;;16.67;11.70;;;4.90;99.90;;;;;;5086011;28;20245;-49
2021/11/06 02:14:15;;;;;;;16.23;12.60;;;4.90;99.90;;;;;;5090525;28;20434;-49
2021/11/06 02:16:40;;;;;;;16.30;11.00;;;4.50;99.90;;;;;;5086682;28;20185;-49
2021/11/06 02:19:06;;;;;;;18.00;11.60;;;5.00;99.90;;;;;;5075478;28;20193;-49
2021/11/06 02:21:34;;;;;;;14.80;11.47;;;5.00;99.90;;;;;;5082042;28;20304;-49
2021/11/06 02:24:00;;;;;;;14.18;11.65;;;4.30;99.90;;;;;;5089101;28;20184;-49
2021/11/06 02:26:26;;;;;;;12.80;11.03;;;5.10;99.90;;;;;;5080639;28;20569;-49
2021/11/06 02:28:55;;;;;;;15.73;10.83;;;4.80;99.90;;;;;;5087982;28;20480;-49
2021/11/06 02:31:22;;;;;;;14.25;11.52;;;4.70;99.90;;;;;;5078864;28;20841;-49
2021/11/06 02:33:49;;;;;;;11.90;10.13;;;4.80;99.90;;;;;;5076310;28;20524;-49
2021/11/06 02:36:15;;;;;;;14.23;11.85;;;4.90;99.90;;;;;;5088973;28;20196;-49
2021/11/06 02:38:41;;;;;;;15.50;12.15;;;4.70;99.90;;;;;;5076349;28;20201;-49
2021/11/06 02:41:07;;;;;;;14.67;10.43;;;4.10;99.90;;;;;;5088986;28;20575;-49
2021/11/06 02:43:33;;;;;;;14.40;10.30;;;4.70;99.90;;;;;;5090537;28;20813;-48
2021/11/06 02:45:59;;;;;;;12.00;9.40;;;4.60;99.90;;;;;;5088342;28;20216;-49
2021/11/06 02:48:24;;;;;;;12.97;10.00;;;4.50;99.90;;;;;;5085700;28;20518;-49
2021/11/06 02:50:50;;;;;;;14.47;11.40;;;4.60;99.90;;;;;;5083839;28;20209;-49
2021/11/06 02:53:16;;;;;;;15.63;11.73;;;4.60;99.90;;;;;;5076498;28;20181;-49
2021/11/06 02:55:42;;;;;;;12.13;10.00;;;4.60;99.90;;;;;;5080328;28;20188;-49
2021/11/06 02:58:08;;;;;;;14.70;12.30;;;4.60;99.90;;;;;;5080949;28;20533;-49
2021/11/06 03:00:34;;;;;;;12.23;9.90;;;4.10;99.90;;;;;;5077174;28;20498;-49
2021/11/06 03:03:00;;;;;;;12.18;10.13;;;4.10;99.90;;;;;;5085069;28;20188;-49
2021/11/06 03:05:26;;;;;;;14.17;10.67;;;4.90;99.90;;;;;;5086085;28;20204;-49
2021/11/06 03:07:52;;;;;;;17.67;13.07;;;4.50;99.90;;;;;;5080944;28;20671;-48
2021/11/06 03:10:18;;;;;;;17.60;13.13;;;4.60;99.90;;;;;;5082513;28;20223;-50
2021/11/06 03:12:48;;;;;;;20.55;15.52;;;4.30;99.90;;;;;;5087402;28;20426;-49
2021/11/06 03:15:15;;;;;;;23.25;17.00;;;3.60;99.90;;;;;;5083065;28;20185;-49
2021/11/06 03:17:41;;;;;;;35.90;25.48;;;4.60;99.90;;;;;;5090973;28;20196;-49
2021/11/06 03:20:08;;;;;;;26.95;18.95;;;4.90;99.90;;;;;;5086553;28;20552;-49
2021/11/06 03:22:34;;;;;;;16.27;11.90;;;4.40;99.90;;;;;;5087969;28;20175;-49
2021/11/06 03:25:02;;;;;;;15.37;11.80;;;4.30;99.90;;;;;;5092381;28;20216;-49
2021/11/06 03:27:27;;;;;;;13.10;11.57;;;4.30;99.90;;;;;;5094523;28;20426;-49
2021/11/06 03:29:53;;;;;;;16.57;12.33;;;3.60;99.90;;;;;;5082869;28;20259;-49
2021/11/06 03:32:19;;;;;;;13.93;10.50;;;4.20;99.90;;;;;;5084334;28;20255;-49
2021/11/06 03:34:45;;;;;;;12.97;11.00;;;4.20;99.90;;;;;;5083564;28;20177;-48
2021/11/06 03:37:10;;;;;;;12.93;10.50;;;4.30;99.90;;;;;;5091412;28;20438;-49
2021/11/06 03:39:36;;;;;;;17.27;12.87;;;4.30;99.90;;;;;;5089530;28;20253;-49
2021/11/06 03:42:05;;;;;;;17.42;12.93;;;4.10;99.90;;;;;;5086188;28;20196;-49
2021/11/06 03:44:30;;;;;;;13.80;11.57;;;4.00;99.90;;;;;;5091635;28;20203;-49
2021/11/06 03:46:56;;;;;;;17.63;11.57;;;4.30;99.90;;;;;;5079576;28;20605;-49
2021/11/06 03:49:22;;;;;;;13.37;10.23;;;4.20;99.90;;;;;;5084943;28;20478;-49
2021/11/06 03:51:48;;;;;;;11.87;9.60;;;4.10;99.90;;;;;;5087963;28;20188;-49
2021/11/06 03:54:13;;;;;;;14.70;10.27;;;4.30;99.90;;;;;;5088211;28;20175;-49
2021/11/06 03:56:39;;;;;;;13.17;10.23;;;3.70;99.90;;;;;;5090181;28;20430;-49
2021/11/06 03:59:05;;;;;;;13.32;10.63;;;3.50;99.90;;;;;;5079076;28;20205;-49
2021/11/06 04:01:32;;;;;;;14.80;11.65;;;4.20;99.90;;;;;;5081171;28;20617;-49
2021/11/06 04:03:58;;;;;;;13.80;11.25;;;4.60;99.90;;;;;;5081298;28;20708;-49
2021/11/06 04:06:24;;;;;;;14.00;11.63;;;4.20;99.90;;;;;;5082802;28;20280;-49
2021/11/06 04:08:51;;;;;;;17.03;12.30;;;4.00;99.90;;;;;;5082214;28;20180;-49
2021/11/06 04:11:18;;;;;;;16.55;12.82;;;3.90;99.90;;;;;;5086119;28;20824;-49
2021/11/06 04:13:44;;;;;;;14.65;12.57;;;3.90;99.90;;;;;;5087722;28;20208;-49
2021/11/06 04:16:10;;;;;;;14.15;11.35;;;4.00;99.90;;;;;;5078949;28;20181;-49
2021/11/06 04:18:35;;;;;;;15.90;12.23;;;4.60;99.90;;;;;;5084726;28;20558;-49
2021/11/06 04:21:01;;;;;;;14.37;11.90;;;4.60;99.90;;;;;;5080381;28;20729;-49
2021/11/06 04:23:27;;;;;;;14.57;12.27;;;4.20;99.90;;;;;;5092534;28;20221;-49
2021/11/06 04:25:53;;;;;;;15.20;12.57;;;3.60;99.90;;;;;;5089761;28;20462;-48
2021/11/06 04:28:19;;;;;;;14.80;12.80;;;4.20;99.90;;;;;;5090233;28;20660;-49
2021/11/06 04:30:44;;;;;;;16.43;13.37;;;4.10;99.90;;;;;;5079631;28;20520;-49
2021/11/06 04:33:10;;;;;;;17.23;13.30;;;4.10;99.90;;;;;;5080367;28;20245;-49
2021/11/06 04:35:36;;;;;;;16.58;12.88;;;4.10;99.90;;;;;;5090512;28;20216;-49
2021/11/06 04:38:02;;;;;;;16.53;12.13;;;3.90;99.90;;;;;;5089511;28;20203;-49
2021/11/06 04:40:28;;;;;;;15.70;12.43;;;4.20;99.90;;;;;;5086366;28;20793;-49
2021/11/06 04:42:54;;;;;;;16.47;12.93;;;3.40;99.90;;;;;;5088865;28;20592;-49
2021/11/06 04:45:19;;;;;;;15.57;13.30;;;3.90;99.90;;;;;;5085142;28;20653;-49
2021/11/06 04:47:45;;;;;;;15.67;12.90;;;4.00;99.90;;;;;;5089345;28;20184;-49
2021/11/06 04:50:11;;;;;;;15.07;12.33;;;4.00;99.90;;;;;;5080922;28;20572;-49
2021/11/06 04:52:38;;;;;;;15.98;12.23;;;3.90;99.90;;;;;;5091088;28;20188;-49
2021/11/06 04:55:08;;;;;;;14.15;12.02;;;3.90;99.90;;;;;;5087295;28;20188;-49
2021/11/06 04:57:34;;;;;;;16.48;11.50;;;3.90;99.90;;;;;;5091488;28;20177;-49
2021/11/06 05:00:00;;;;;;;13.38;11.85;;;3.90;99.90;;;;;;5089851;28;20208;-49
2021/11/06 05:02:25;;;;;;;14.80;12.60;;;3.70;99.90;;;;;;5081387;28;20177;-49
2021/11/06 05:04:51;;;;;;;15.67;11.70;;;3.60;99.90;;;;;;5091632;28;20212;-49
2021/11/06 05:07:17;;;;;;;16.47;12.47;;;3.60;99.90;;;;;;5090355;28;20184;-49
2021/11/06 05:09:45;;;;;;;16.07;11.83;;;4.00;99.90;;;;;;5080767;28;20474;-49
2021/11/06 05:12:14;;;;;;;15.65;12.30;;;3.80;99.90;;;;;;5087813;28;20267;-50
2021/11/06 05:14:40;;;;;;;17.92;13.70;;;3.80;99.90;;;;;;5090560;28;20181;-50
2021/11/06 05:17:06;;;;;;;16.73;11.90;;;3.40;99.90;;;;;;5079961;28;20554;-49
2021/11/06 05:19:32;;;;;;;15.95;11.88;;;3.90;99.90;;;;;;5085679;28;20208;-49
2021/11/06 05:21:57;;;;;;;14.27;12.27;;;3.60;99.90;;;;;;5086078;28;20190;-50
2021/11/06 05:24:23;;;;;;;15.20;11.77;;;3.90;99.90;;;;;;5090980;28;20438;-49
2021/11/06 05:26:49;;;;;;;14.70;11.13;;;3.80;99.90;;;;;;5091182;28;20483;-49
2021/11/06 05:29:18;;;;;;;13.70;11.47;;;3.60;99.90;;;;;;5082688;28;20537;-49
2021/11/06 05:31:43;;;;;;;12.93;10.98;;;3.60;99.90;;;;;;5083563;28;20276;-49
2021/11/06 05:34:09;;;;;;;12.57;10.53;;;3.90;99.90;;;;;;5085889;28;20191;-49
2021/11/06 05:36:35;;;;;;;11.03;9.70;;;3.70;99.90;;;;;;5090873;28;20253;-50
2021/11/06 05:39:02;;;;;;;12.65;11.35;;;3.50;99.90;;;;;;5082372;28;20496;-50
2021/11/06 05:41:27;;;;;;;13.48;10.60;;;3.60;99.90;;;;;;5080135;28;20196;-49
2021/11/06 05:43:53;;;;;;;14.90;10.07;;;3.50;99.90;;;;;;5085406;28;20613;-49
2021/11/06 05:46:19;;;;;;;13.60;10.97;;;3.50;99.90;;;;;;5076502;28;20211;-49
2021/11/06 05:48:45;;;;;;;12.70;9.67;;;3.40;99.90;;;;;;5079821;28;20228;-49
2021/11/06 05:51:10;;;;;;;13.17;10.10;;;3.40;99.90;;;;;;5083193;28;20197;-48
2021/11/06 05:53:36;;;;;;;11.60;9.37;;;3.40;99.90;;;;;;5083178;28;20176;-48
2021/11/06 05:56:02;;;;;;;13.07;10.30;;;3.30;99.90;;;;;;5077003;28;20188;-49
2021/11/06 05:58:27;;;;;;;13.93;10.47;;;3.20;99.90;;;;;;5080710;28;20441;-49
2021/11/06 06:00:53;;;;;;;13.30;10.60;;;2.70;99.90;;;;;;5080394;28;20224;-48
2021/11/06 06:03:19;;;;;;;10.97;9.53;;;3.40;99.90;;;;;;5076333;28;20187;-49
2021/11/06 06:05:44;;;;;;;13.40;9.63;;;3.20;99.90;;;;;;5083361;28;20347;-49
2021/11/06 06:08:10;;;;;;;12.60;10.00;;;3.20;99.90;;;;;;5090331;28;20176;-49
2021/11/06 06:10:36;;;;;;;13.63;10.10;;;3.20;99.90;;;;;;5081786;28;20607;-49
2021/11/06 06:13:02;;;;;;;12.25;8.65;;;3.40;99.90;;;;;;5086951;28;20480;-49
2021/11/06 06:15:28;;;;;;;11.60;8.80;;;3.30;99.90;;;;;;5086999;28;20552;-49
2021/11/06 06:17:55;;;;;;;11.80;9.43;;;3.30;99.90;;;;;;5082801;28;20204;-49
2021/11/06 06:20:21;;;;;;;11.38;9.45;;;3.30;99.90;;;;;;5081251;28;20232;-49
2021/11/06 06:22:46;;;;;;;10.37;9.30;;;3.30;99.90;;;;;;5092231;28;20640;-50
2021/11/06 06:25:13;;;;;;;14.60;9.53;;;3.30;99.90;;;;;;5088209;28;20892;-49
2021/11/06 06:27:41;;;;;;;11.00;9.27;;;3.20;99.90;;;;;;5088636;28;20438;-50
2021/11/06 06:30:10;;;;;;;11.98;9.00;;;3.30;99.90;;;;;;5083173;28;20711;-49
2021/11/06 06:32:39;;;;;;;15.57;10.73;;;3.30;99.90;;;;;;5082501;28;20275;-49
2021/11/06 06:35:06;;;;;;;13.55;10.75;;;3.10;99.90;;;;;;5080531;28;20212;-48
2021/11/06 06:37:32;;;;;;;18.02;10.10;;;3.40;99.90;;;;;;5085537;28;20184;-48
2021/11/06 06:39:58;;;;;;;14.33;9.83;;;3.40;99.90;;;;;;5078617;28;20267;-48
2021/11/06 06:42:24;;;;;;;12.53;9.30;;;3.50;99.90;;;;;;5088698;28;20930;-48
2021/11/06 06:44:51;;;;;;;13.37;10.40;;;3.40;99.90;;;;;;5079339;28;20476;-49
2021/11/06 06:47:17;;;;;;;13.75;9.57;;;3.50;99.90;;;;;;5079855;28;20430;-49
2021/11/06 06:49:44;;;;;;;12.35;8.30;;;2.80;99.90;;;;;;5083091;28;20234;-48
2021/11/06 06:52:10;;;;;;;12.25;9.13;;;3.50;99.90;;;;;;5086341;28;20562;-48
2021/11/06 06:54:36;;;;;;;11.73;9.80;;;3.40;99.90;;;;;;5087797;28;20191;-50
2021/11/06 06:57:02;;;;;;;13.00;9.83;;;3.60;99.90;;;;;;5091980;28;20180;-50
2021/11/06 06:59:32;;;;;;;11.65;8.20;;;3.40;99.90;;;;;;5081997;28;20364;-50
2021/11/06 07:01:58;;;;;;;12.55;9.40;;;2.90;99.90;;;;;;5089524;28;20677;-47
2021/11/06 07:04:24;;;;;;;13.68;9.13;;;3.50;99.90;;;;;;5084222;28;20183;-49
2021/11/06 07:06:51;;;;;;;11.17;8.70;;;3.80;99.90;;;;;;5082344;28;20184;-49
2021/11/06 07:09:17;;;;;;;11.60;7.82;;;3.30;99.90;;;;;;5082644;28;20216;-49
2021/11/06 07:11:42;;;;;;;10.82;8.02;;;3.20;99.90;;;;;;5086092;28;20203;-49
2021/11/06 07:14:09;;;;;;;11.90;8.93;;;3.90;99.90;;;;;;5088364;28;20645;-49
2021/11/06 07:16:35;;;;;;;11.05;8.63;;;3.60;99.90;;;;;;5083489;28;20709;-49
2021/11/06 07:19:00;;;;;;;12.30;9.00;;;3.80;99.90;;;;;;5083770;28;20200;-48
2021/11/06 07:21:26;;;;;;;11.20;9.20;;;4.10;99.90;;;;;;5077602;28;20638;-49
2021/11/06 07:23:52;;;;;;;13.30;9.80;;;4.20;99.90;;;;;;5077059;28;20649;-48
2021/11/06 07:26:17;;;;;;;13.33;9.07;;;4.10;99.90;;;;;;5089231;28;20652;-49
2021/11/06 07:28:43;;;;;;;14.43;9.20;;;4.10;99.90;;;;;;5084881;28;20223;-48
2021/11/06 07:31:08;;;;;;;12.17;8.00;;;4.10;99.90;;;;;;5080813;28;20216;-48
2021/11/06 07:33:34;;;;;;;14.37;8.60;;;4.20;99.90;;;;;;5086302;28;20234;-48
2021/11/06 07:35:59;;;;;;;13.07;8.57;;;4.10;99.90;;;;;;5088379;28;20185;-48
2021/11/06 07:38:25;;;;;;;12.60;9.10;;;4.30;99.90;;;;;;5083870;28;20185;-48
2021/11/06 07:40:51;;;;;;;10.37;8.20;;;4.00;99.90;;;;;;5079191;28;20243;-48
2021/11/06 07:43:16;;;;;;;11.80;7.47;;;4.80;99.90;;;;;;5082383;28;20183;-49
2021/11/06 07:45:42;;;;;;;12.63;8.63;;;4.50;99.90;;;;;;5082268;28;20716;-49
2021/11/06 07:48:08;;;;;;;10.93;7.83;;;4.60;99.90;;;;;;5080008;28;20179;-49
2021/11/06 07:50:33;;;;;;;11.43;8.00;;;4.50;99.90;;;;;;5086603;28;20466;-48
2021/11/06 07:52:59;;;;;;;11.00;8.70;;;4.40;99.90;;;;;;5090635;28;20273;-48
2021/11/06 07:55:25;;;;;;;10.30;7.80;;;4.50;99.90;;;;;;5078935;28;20653;-47
2021/11/06 07:57:50;;;;;;;10.67;7.67;;;4.20;99.90;;;;;;5080692;28;20603;-48
2021/11/06 08:00:18;;;;;;;9.47;7.17;;;4.60;99.90;;;;;;5087748;28;20246;-49
2021/11/06 08:02:45;;;;;;;10.00;7.07;;;4.60;99.90;;;;;;5083286;28;20271;-48
2021/11/06 08:05:13;;;;;;;9.07;7.10;;;4.50;99.90;;;;;;5088077;28;20674;-48
2021/11/06 08:07:40;;;;;;;9.70;7.15;;;4.30;99.90;;;;;;5081912;28;20201;-49
2021/11/06 08:10:06;;;;;;;12.30;7.60;;;5.00;99.90;;;;;;5080546;28;20277;-48
2021/11/06 08:12:33;;;;;;;8.38;6.75;;;4.70;99.90;;;;;;5083725;28;20189;-48
2021/11/06 08:14:59;;;;;;;10.18;8.20;;;4.90;99.90;;;;;;5089954;28;20196;-50
2021/11/06 08:17:25;;;;;;;12.07;8.00;;;5.10;99.90;;;;;;5090203;28;20548;-49
2021/11/06 08:19:51;;;;;;;14.17;8.27;;;5.20;99.90;;;;;;5092926;28;20204;-49
2021/11/06 08:22:17;;;;;;;11.33;8.53;;;5.10;99.90;;;;;;5079288;28;20446;-49
2021/11/06 08:24:42;;;;;;;10.27;7.70;;;5.40;99.90;;;;;;5090580;28;20512;-49
2021/11/06 08:27:09;;;;;;;9.90;7.40;;;5.60;99.90;;;;;;5086231;28;20439;-49
2021/11/06 08:29:35;;;;;;;12.00;7.57;;;5.50;99.90;;;;;;5080721;28;20199;-49
2021/11/06 08:32:01;;;;;;;11.77;8.18;;;5.70;99.90;;;;;;5077502;28;20179;-49
2021/11/06 08:34:28;;;;;;;11.67;7.80;;;5.70;99.90;;;;;;5084809;28;20173;-48
2021/11/06 08:36:55;;;;;;;13.75;7.85;;;6.10;99.90;;;;;;5080995;28;20316;-48
2021/11/06 08:39:22;;;;;;;13.45;8.35;;;5.90;99.90;;;;;;5088295;28;20330;-48
2021/11/06 08:41:49;;;;;;;12.80;9.00;;;5.70;99.90;;;;;;5080212;28;20175;-49
2021/11/06 08:44:17;;;;;;;14.23;9.75;;;5.90;99.90;;;;;;5084414;28;20550;-48
2021/11/06 08:46:45;;;;;;;11.02;7.95;;;5.50;99.90;;;;;;5075743;28;20195;-48
2021/11/06 08:49:15;;;;;;;13.85;8.80;;;6.00;99.90;;;;;;5087632;28;20196;-48
2021/11/06 08:51:47;;;;;;;13.07;9.68;;;6.20;99.90;;;;;;5081017;28;21550;-48
2021/11/06 08:54:13;;;;;;;13.85;9.02;;;6.40;99.90;;;;;;5086715;28;20266;-47
2021/11/06 08:56:44;;;;;;;13.07;8.45;;;6.40;99.90;;;;;;5087407;28;20284;-48
2021/11/06 08:59:11;;;;;;;15.07;8.38;;;6.20;99.90;;;;;;5089922;28;20225;-48
2021/11/06 09:01:37;;;;;;;11.80;7.63;;;6.30;99.90;;;;;;5088227;28;20186;-48
2021/11/06 09:04:03;;;;;;;12.98;9.00;;;6.40;99.90;;;;;;5076187;28;20840;-51
2021/11/06 09:06:33;;;;;;;11.50;8.18;;;6.90;99.90;;;;;;5076701;28;20267;-50
2021/11/06 09:09:04;;;;;;;12.60;8.50;;;7.00;99.90;;;;;;5087392;28;20293;-50
2021/11/06 09:11:30;;;;;;;13.32;9.25;;;7.10;99.90;;;;;;5082676;28;20645;-51
2021/11/06 09:13:56;;;;;;;13.27;8.45;;;7.20;99.90;;;;;;5088831;28;20212;-50
2021/11/06 09:16:23;;;;;;;13.57;8.80;;;7.10;99.90;;;;;;5085683;28;20481;-50
2021/11/06 09:18:49;;;;;;;11.52;8.57;;;6.90;99.90;;;;;;5087468;28;20255;-50
2021/11/06 09:21:18;;;;;;;11.68;8.07;;;6.50;99.90;;;;;;5086904;28;20200;-50
2021/11/06 09:23:47;;;;;;;12.13;7.13;;;7.30;99.90;;;;;;5080089;28;20219;-49
2021/11/06 09:26:14;;;;;;;13.80;8.40;;;7.30;99.90;;;;;;5084487;28;20289;-51
2021/11/06 09:28:41;;;;;;;12.07;8.63;;;7.20;99.90;;;;;;5080997;28;20572;-50
2021/11/06 09:31:13;;;;;;;11.27;8.63;;;7.20;99.90;;;;;;5077994;28;20281;-49
2021/11/06 09:33:40;;;;;;;11.95;9.18;;;7.10;99.90;;;;;;5080089;28;20303;-49
2021/11/06 09:36:06;;;;;;;11.90;8.75;;;7.60;99.90;;;;;;5086718;28;20192;-49
2021/11/06 09:38:32;;;;;;;12.90;9.10;;;7.30;99.90;;;;;;5080100;28;20208;-49
2021/11/06 09:41:03;;;;;;;13.80;8.70;;;7.80;99.90;;;;;;5082011;28;20961;-50
2021/11/06 09:43:29;;;;;;;12.60;9.38;;;8.10;99.90;;;;;;5086597;28;20180;-50
2021/11/06 09:45:57;;;;;;;11.93;8.57;;;7.80;99.90;;;;;;5086337;28;20634;-49
2021/11/06 09:48:23;;;;;;;13.35;9.43;;;8.20;99.90;;;;;;5084315;28;20417;-50
2021/11/06 09:50:49;;;;;;;13.80;9.40;;;8.00;99.90;;;;;;5086551;28;20197;-51
2021/11/06 09:53:16;;;;;;;11.70;8.90;;;7.90;99.90;;;;;;5088528;28;20184;-50
2021/11/06 09:55:43;;;;;;;10.60;8.25;;;8.10;99.90;;;;;;5083648;28;20416;-51
2021/11/06 09:58:09;;;;;;;14.30;9.63;;;8.30;99.90;;;;;;5076039;28;20207;-51
2021/11/06 10:00:35;;;;;;;10.30;8.35;;;8.00;99.90;;;;;;5085981;28;20275;-50
2021/11/06 10:03:01;;;;;;;10.17;8.30;;;8.40;99.90;;;;;;5082922;28;20704;-51
2021/11/06 10:06:05;;;;;;;11.40;8.63;;;8.50;99.90;;;;;;5084930;28;20494;-51
2021/11/06 10:08:39;;;;;;;10.25;7.53;;;8.90;99.90;;;;;;5078235;28;20180;-49
2021/11/06 10:11:11;;;;;;;8.77;7.88;;;8.80;99.90;;;;;;5087475;28;20197;-49
2021/11/06 10:14:07;;;;;;;12.27;8.90;;;8.70;99.90;;;;;;5083964;28;20542;-49
2021/11/06 10:16:49;;;;;;;12.90;9.13;;;9.00;99.90;;;;;;5075125;28;20200;-48
2021/11/06 10:19:18;;;;;;;12.88;9.40;;;8.80;99.90;;;;;;5084158;28;20602;-48
2021/11/06 10:22:03;;;;;;;16.30;10.27;;;8.90;99.90;;;;;;5087612;28;20184;-48
2021/11/06 10:24:47;;;;;;;13.30;9.82;;;9.20;99.90;;;;;;5080482;28;20192;-48
2021/11/06 10:27:13;;;;;;;13.98;10.25;;;9.10;99.90;;;;;;5087793;28;20669;-48
2021/11/06 10:29:39;;;;;;;15.45;11.48;;;9.00;99.90;;;;;;5087522;28;20390;-48
2021/11/06 10:32:06;;;;;;;13.55;10.70;;;8.70;99.90;;;;;;5084368;28;20245;-48
2021/11/06 10:34:37;;;;;;;13.18;10.02;;;9.10;99.90;;;;;;5084694;28;20188;-47
2021/11/06 10:37:06;;;;;;;15.30;11.50;;;9.20;99.90;;;;;;5082961;28;20173;-48
2021/11/06 10:39:33;;;;;;;15.55;11.13;;;9.20;99.90;;;;;;5072303;28;20212;-48
2021/11/06 10:42:11;;;;;;;14.10;10.00;;;9.40;99.90;;;;;;5084465;28;20530;-52
2021/11/06 10:44:38;;;;;;;12.82;9.90;;;9.30;99.90;;;;;;5086382;28;20207;-47
2021/11/06 10:47:03;;;;;;;15.75;11.45;;;9.60;99.90;;;;;;5078546;28;20669;-48
2021/11/06 10:49:49;;;;;;;13.50;10.50;;;9.40;99.90;;;;;;5076336;28;20225;-48
2021/11/06 10:52:18;;;;;;;17.17;11.82;;;9.50;99.90;;;;;;5083963;28;20181;-48
2021/11/06 10:54:59;;;;;;;15.50;10.77;;;9.50;99.90;;;;;;5082230;28;20193;-47
2021/11/06 10:57:26;;;;;;;14.05;10.65;;;10.20;99.90;;;;;;5081185;28;20176;-48
2021/11/06 11:00:09;;;;;;;15.10;10.20;;;9.90;99.90;;;;;;5074623;28;20208;-48
2021/11/06 11:02:34;;;;;;;14.90;11.68;;;10.20;99.90;;;;;;5083753;28;20695;-48
2021/11/06 11:05:00;;;;;;;16.20;12.20;;;10.30;99.90;;;;;;5073209;23;20261;-83
2021/11/06 11:07:25;;;;;;;14.90;12.13;;;9.30;99.90;;;;;;5034366;28;20182;-82
2021/11/06 11:09:51;;;;;;;18.53;12.60;;;9.70;99.90;;;;;;5057414;28;20200;-82
2021/11/06 11:12:17;;;;;;;16.03;12.50;;;9.30;99.90;;;;;;5055276;28;20217;-82
2021/11/06 11:14:52;;;;;;;17.10;12.45;;;9.30;99.90;;;;;;5028826;28;20213;-82
2021/11/06 11:17:19;;;;;;;15.48;12.25;;;9.20;99.90;;;;;;5044289;28;20181;-82
2021/11/06 11:19:47;;;;;;;19.67;13.50;;;9.20;99.90;;;;;;5034803;28;20218;-82
2021/11/06 11:22:24;;;;;;;15.63;12.48;;;9.40;99.90;;;;;;5036553;28;20516;-82
2021/11/06 11:24:51;;;;;;;15.63;12.00;;;9.60;99.90;;;;;;5049916;28;20201;-83
2021/11/06 11:27:16;;;;;;;17.27;13.55;;;9.70;99.90;;;;;;5032072;28;20205;-83
2021/11/06 11:29:44;;;;;;;16.60;13.73;;;9.00;99.90;;;;;;5052508;28;20643;-83
2021/11/06 11:32:11;;;;;;;17.38;13.10;;;8.60;99.90;;;;;;5057132;28;20402;-83
2021/11/06 11:34:40;;;;;;;18.50;12.75;;;9.10;99.90;;;;;;5037214;28;20198;-83
2021/11/06 11:37:06;;;;;;;14.73;11.68;;;9.40;99.90;;;;;;5051154;28;20187;-84
2021/11/06 11:39:32;;;;;;;18.60;13.53;;;9.50;99.90;;;;;;5036270;28;20182;-83
2021/11/06 11:42:06;;;;;;;19.60;13.73;;;9.00;99.90;;;;;;5031159;28;20447;-83
2021/11/06 11:44:53;;;;;;;20.08;13.20;;;8.80;99.90;;;;;;5060373;28;20437;-83
2021/11/06 11:47:37;;;;;;;17.98;13.40;;;9.30;99.90;;;;;;5054826;28;20183;-85
2021/11/06 11:50:13;;;;;;;16.02;12.65;;;9.60;99.90;;;;;;5051754;28;20181;-83
2021/11/06 11:52:41;;;;;;;18.35;14.82;;;9.40;99.90;;;;;;5044592;28;20312;-84
2021/11/06 11:55:19;;;;;;;20.27;13.40;;;9.10;99.90;;;;;;5036813;28;20206;-83
2021/11/06 11:58:04;;;;;;;18.75;13.30;;;9.20;99.90;;;;;;5030611;28;20814;-84
2021/11/06 12:00:29;;;;;;;20.23;14.35;;;9.30;99.90;;;;;;5035954;28;20186;-85
2021/11/06 12:03:06;;;;;;;21.13;14.93;;;10.00;99.90;;;;;;5033610;28;20191;-85
2021/11/06 12:05:44;;;;;;;19.38;14.60;;;9.50;99.90;;;;;;5056605;28;20711;-84
2021/11/06 12:08:09;;;;;;;18.38;14.68;;;9.20;99.90;;;;;;5037384;28;20182;-84
2021/11/06 12:10:41;;;;;;;18.87;13.57;;;9.20;99.90;;;;;;5045803;28;20665;-86
2021/11/06 12:13:32;;;;;;;18.27;14.48;;;9.70;99.90;;;;;;5034520;28;20232;-89
2021/11/06 12:16:12;;;;;;;16.85;13.32;;;9.30;99.90;;;;;;5047435;28;20255;-89
2021/11/06 12:18:40;;;;;;;18.25;13.75;;;9.90;99.90;;;;;;5039718;28;20183;-86
2021/11/06 12:21:19;;;;;;;19.52;14.90;;;9.70;99.90;;;;;;5047424;28;20187;-86
2021/11/06 12:23:50;;;;;;;18.73;14.73;;;10.20;99.90;;;;;;5030357;28;20213;-86
2021/11/06 12:26:26;;;;;;;15.38;13.60;;;9.80;99.90;;;;;;5029572;28;20206;-86
2021/11/06 12:29:07;;;;;;;18.35;14.10;;;10.00;99.90;;;;;;5049091;28;20186;-86
2021/11/06 12:31:39;;;;;;;17.02;13.38;;;10.00;99.90;;;;;;5036523;28;20234;-86
2021/11/06 12:34:09;;;;;;;20.17;14.70;;;10.50;99.90;;;;;;5035365;28;20289;-86
2021/11/06 12:36:41;;;;;;;20.83;14.93;;;10.20;99.90;;;;;;5050004;28;20651;-87
2021/11/06 12:39:07;;;;;;;18.48;14.32;;;9.80;99.90;;;;;;5040783;28;20193;-86
2021/11/06 12:41:36;;;;;;;20.97;16.20;;;10.20;99.90;;;;;;5034876;28;20262;-85